createdAt,value
2022-08-07T00:00:28.080Z,41.95
2022-08-07T00:03:14.926Z,42.29
2022-08-07T00:06:02.316Z,42.16
2022-08-07T00:08:49.203Z,42.25
2022-08-07T00:11:48.094Z,42.62
2022-08-07T00:14:44.327Z,42.10
2022-08-07T00:17:39.664Z,42.39
2022-08-07T00:20:29.867Z,42.37
2022-08-07T00:23:24.236Z,42.62
2022-08-07T00:26:18.717Z,42.48
2022-08-07T00:29:19.790Z,42.66
2022-08-07T00:32:15.941Z,42.57
2022-08-07T00:35:02.763Z,42.68
2022-08-07T00:37:51.665Z,42.87
2022-08-07T00:40:40.990Z,42.80
2022-08-07T00:44:01.111Z,42.54
2022-08-07T00:46:34.882Z,42.82
2022-08-07T00:49:24.919Z,42.83
2022-08-07T00:52:28.615Z,42.86
2022-08-07T00:56:02.910Z,43.09
2022-08-07T00:58:49.600Z,43.27
2022-08-07T01:01:44.434Z,43.27
2022-08-07T01:04:43.376Z,43.24
2022-08-07T01:07:40.095Z,43.61
2022-08-07T01:13:12.648Z,43.35
2022-08-07T01:16:12.961Z,43.30
2022-08-07T01:19:25.493Z,43.45
2022-08-07T01:22:29.406Z,43.52
2022-08-07T01:25:40.326Z,43.76
2022-08-07T01:28:31.446Z,43.92
2022-08-07T01:31:42.725Z,43.79
2022-08-07T01:34:35.962Z,43.94
2022-08-07T01:37:36.296Z,43.82
2022-08-07T01:41:26.372Z,43.98
2022-08-07T01:44:07.318Z,43.92
2022-08-07T01:46:54.941Z,44.05
2022-08-07T01:52:49.661Z,43.93
2022-08-07T01:55:45.736Z,44.33
2022-08-07T01:58:40.845Z,44.09
2022-08-07T02:01:59.708Z,44.37
2022-08-07T02:05:05.572Z,44.40
2022-08-07T02:07:55.867Z,44.65
2022-08-07T02:10:43.767Z,44.53
2022-08-07T02:13:56.347Z,44.67
2022-08-07T02:16:47.601Z,44.78
2022-08-07T02:20:05.035Z,44.88
2022-08-07T02:22:44.898Z,45.30
2022-08-07T02:29:48.734Z,45.70
2022-08-07T02:33:00.438Z,45.85
2022-08-07T02:36:29.774Z,45.61
2022-08-07T02:40:02.075Z,45.78
2022-08-07T02:43:00.631Z,45.79
2022-08-07T02:46:00.385Z,45.70
2022-08-07T02:48:55.026Z,45.83
2022-08-07T02:51:49.932Z,45.53
2022-08-07T02:54:47.126Z,46.00
2022-08-07T02:58:04.358Z,45.72
2022-08-07T03:00:58.735Z,46.01
2022-08-07T03:03:52.561Z,45.81
2022-08-07T03:06:44.825Z,45.77
2022-08-07T03:09:42.368Z,45.58
2022-08-07T03:12:33.879Z,45.84
2022-08-07T03:15:30.346Z,45.71
2022-08-07T03:18:54.392Z,45.94
2022-08-07T03:22:18.851Z,46.04
2022-08-07T03:25:17.481Z,45.87
2022-08-07T03:31:50.034Z,46.16
2022-08-07T03:34:40.640Z,46.10
2022-08-07T03:37:46.495Z,46.12
2022-08-07T03:40:44.244Z,46.20
2022-08-07T03:43:36.065Z,46.04
2022-08-07T03:47:13.003Z,46.19
2022-08-07T03:50:11.034Z,46.35
2022-08-07T04:00:04.138Z,46.42
2022-08-07T04:03:15.865Z,46.33
2022-08-07T04:06:02.929Z,46.40
2022-08-07T04:13:02.627Z,46.25
2022-08-07T04:15:49.624Z,46.24
2022-08-07T04:18:59.643Z,46.31
2022-08-07T04:21:59.526Z,46.44
2022-08-07T04:24:48.251Z,46.34
2022-08-07T04:27:44.126Z,46.30
2022-08-07T04:30:55.634Z,46.49
2022-08-07T04:33:46.757Z,46.35
2022-08-07T04:36:43.653Z,46.30
2022-08-07T04:39:35.637Z,46.31
2022-08-07T04:42:28.631Z,46.26
2022-08-07T04:45:19.719Z,46.29
2022-08-07T04:48:38.007Z,46.58
2022-08-07T04:51:31.922Z,46.47
2022-08-07T04:54:34.903Z,46.41
2022-08-07T04:58:24.120Z,46.65
2022-08-07T05:01:56.841Z,46.59
2022-08-07T05:04:54.888Z,46.69
2022-08-07T05:08:00.581Z,47.21
2022-08-07T05:10:51.266Z,46.86
2022-08-07T05:14:53.904Z,46.93
2022-08-07T05:17:12.001Z,46.91
2022-08-07T05:20:11.343Z,47.34
2022-08-07T05:23:15.632Z,47.27
2022-08-07T05:26:13.328Z,46.95
2022-08-07T05:29:08.197Z,47.40
2022-08-07T05:31:57.598Z,47.22
2022-08-07T05:34:45.740Z,47.05
2022-08-07T05:37:40.880Z,47.64
2022-08-07T05:40:29.394Z,47.32
2022-08-07T05:43:17.002Z,47.70
2022-08-07T05:46:05.627Z,47.25
2022-08-07T05:48:59.227Z,47.30
2022-08-07T05:51:49.342Z,47.42
2022-08-07T05:54:53.244Z,47.95
2022-08-07T05:57:46.353Z,48.10
2022-08-07T06:00:35.138Z,48.04
2022-08-07T06:03:23.240Z,48.05
2022-08-07T06:06:17.426Z,48.04
2022-08-07T06:09:06.371Z,48.17
2022-08-07T06:12:07.163Z,48.18
2022-08-07T06:14:55.005Z,48.21
2022-08-07T06:17:53.552Z,48.52
2022-08-07T06:20:50.482Z,48.25
2022-08-07T06:24:37.566Z,48.60
2022-08-07T06:26:59.692Z,48.30
2022-08-07T06:29:52.530Z,48.33
2022-08-07T06:32:44.184Z,48.57
2022-08-07T06:35:45.477Z,48.53
2022-08-07T06:38:35.175Z,48.78
2022-08-07T06:42:02.604Z,48.45
2022-08-07T06:44:45.327Z,48.56
2022-08-07T06:47:48.090Z,48.58
2022-08-07T06:50:47.855Z,48.46
2022-08-07T06:55:28.411Z,48.53
2022-08-07T06:56:49.676Z,48.96
2022-08-07T07:00:14.420Z,49.37
2022-08-07T07:02:57.693Z,49.02
2022-08-07T07:06:02.625Z,48.99
2022-08-07T07:08:52.942Z,48.76
2022-08-07T07:12:08.552Z,48.90
2022-08-07T07:15:03.507Z,48.81
2022-08-07T07:17:53.532Z,48.93
2022-08-07T07:21:04.087Z,49.20
2022-08-07T07:24:09.952Z,48.63
2022-08-07T07:27:00.318Z,48.51
2022-08-07T07:30:09.206Z,48.52
2022-08-07T07:32:58.356Z,48.31
2022-08-07T07:36:04.059Z,48.04
2022-08-07T07:38:52.092Z,47.85
2022-08-07T07:42:01.798Z,48.24
2022-08-07T07:44:49.639Z,47.55
2022-08-07T07:47:52.059Z,47.38
2022-08-07T07:50:40.375Z,47.01
2022-08-07T07:53:28.551Z,46.57
2022-08-07T07:56:30.193Z,46.66
2022-08-07T07:59:20.845Z,46.01
2022-08-07T08:02:34.274Z,45.82
2022-08-07T08:05:23.793Z,45.40
2022-08-07T08:08:36.934Z,45.04
2022-08-07T08:11:47.185Z,44.39
2022-08-07T08:14:36.499Z,44.26
2022-08-07T08:17:56.683Z,43.72
2022-08-07T08:20:33.173Z,43.78
2022-08-07T08:23:42.457Z,43.44
2022-08-07T08:26:50.551Z,43.04
2022-08-07T08:29:54.584Z,42.54
2022-08-07T08:32:52.984Z,42.10
2022-08-07T08:35:47.089Z,41.91
2022-08-07T08:38:42.325Z,41.61
2022-08-07T08:41:56.876Z,41.32
2022-08-07T08:45:13.218Z,40.52
2022-08-07T08:48:03.443Z,40.49
2022-08-07T08:50:55.618Z,40.26
2022-08-07T08:54:07.299Z,39.25
2022-08-07T08:56:54.843Z,39.78
2022-08-07T08:59:52.605Z,39.07
2022-08-07T09:02:59.355Z,38.92
2022-08-07T09:06:36.609Z,38.42
2022-08-07T09:09:49.039Z,38.05
2022-08-07T09:13:02.914Z,38.42
2022-08-07T09:16:20.309Z,37.77
2022-08-07T09:19:51.289Z,36.11
2022-08-07T09:24:33.732Z,35.65
2022-08-07T09:26:09.891Z,35.35
2022-08-07T09:30:05.813Z,35.84
2022-08-07T09:32:54.600Z,34.81
2022-08-07T09:36:01.255Z,34.35
2022-08-07T09:39:52.687Z,34.34
2022-08-07T09:42:41.892Z,34.85
2022-08-07T09:47:52.710Z,34.84
2022-08-07T09:50:00.852Z,34.17
2022-08-07T09:52:53.734Z,33.73
2022-08-07T09:56:05.467Z,33.43
2022-08-07T09:59:35.675Z,33.50
2022-08-07T10:02:55.122Z,33.04
2022-08-07T10:06:00.292Z,33.85
2022-08-07T10:09:58.975Z,32.76
2022-08-07T10:12:52.972Z,33.33
2022-08-07T10:15:46.939Z,32.95
2022-08-07T10:18:55.278Z,32.47
2022-08-07T10:22:33.760Z,31.80
2022-08-07T10:25:42.387Z,32.51
2022-08-07T10:28:38.414Z,32.54
2022-08-07T10:31:38.996Z,32.22
2022-08-07T10:34:38.375Z,32.04
2022-08-07T10:38:00.948Z,31.63
2022-08-07T10:41:45.922Z,31.80
2022-08-07T10:44:38.576Z,31.58
2022-08-07T10:47:53.634Z,31.02
2022-08-07T10:50:50.372Z,31.34
2022-08-07T10:54:00.251Z,30.40
2022-08-07T10:57:13.704Z,30.40
2022-08-07T11:00:36.607Z,30.79
2022-08-07T11:03:28.046Z,30.82
2022-08-07T11:06:31.332Z,30.64
2022-08-07T11:10:07.909Z,30.68
2022-08-07T11:12:37.992Z,30.63
2022-08-07T11:15:32.252Z,30.40
2022-08-07T11:18:50.909Z,30.22
2022-08-07T11:22:31.605Z,29.68
2022-08-07T11:25:27.189Z,30.26
2022-08-07T11:28:35.822Z,29.10
2022-08-07T11:31:26.894Z,29.78
2022-08-07T11:34:20.925Z,29.74
2022-08-07T11:37:19.921Z,28.98
2022-08-07T11:40:19.245Z,29.11
2022-08-07T11:43:16.846Z,28.97
2022-08-07T11:46:32.593Z,28.95
2022-08-07T11:50:32.436Z,28.60
2022-08-07T11:53:21.836Z,28.67
2022-08-07T11:56:42.706Z,28.48
2022-08-07T12:00:10.940Z,28.67
2022-08-07T12:03:08.465Z,28.14
2022-08-07T12:06:37.402Z,28.54
2022-08-07T12:10:05.919Z,27.76
2022-08-07T12:12:59.486Z,28.31
2022-08-07T12:16:06.127Z,28.14
2022-08-07T12:19:10.688Z,27.96
2022-08-07T12:22:39.480Z,27.63
2022-08-07T12:26:05.854Z,28.10
2022-08-07T12:29:13.483Z,27.61
2022-08-07T12:32:29.315Z,27.53
2022-08-07T12:35:17.519Z,27.70
2022-08-07T12:38:11.630Z,27.37
2022-08-07T12:41:49.323Z,27.19
2022-08-07T12:44:46.754Z,27.34
2022-08-07T12:47:43.939Z,26.88
2022-08-07T12:50:40.176Z,26.89
2022-08-07T12:54:24.448Z,26.77
2022-08-07T12:56:55.088Z,27.33
2022-08-07T12:59:54.196Z,27.15
2022-08-07T13:02:57.611Z,26.66
2022-08-07T13:06:27.119Z,26.42
2022-08-07T13:10:21.748Z,26.80
2022-08-07T13:12:51.859Z,26.21
2022-08-07T13:15:51.945Z,26.80
2022-08-07T13:19:11.382Z,26.20
2022-08-07T13:22:29.134Z,26.56
2022-08-07T13:25:41.784Z,26.17
2022-08-07T13:28:54.264Z,26.36
2022-08-07T13:32:32.012Z,26.09
2022-08-07T13:35:59.654Z,26.55
2022-08-07T13:39:02.081Z,25.95
2022-08-07T13:41:51.153Z,26.43
2022-08-07T13:44:42.553Z,26.39
2022-08-07T13:48:06.585Z,26.19
2022-08-07T13:51:01.184Z,25.97
2022-08-07T13:54:16.436Z,25.88
2022-08-07T13:57:23.791Z,26.03
2022-08-07T14:00:13.386Z,25.88
2022-08-07T14:03:13.826Z,25.70
2022-08-07T14:06:16.510Z,25.49
2022-08-07T14:09:04.955Z,25.70
2022-08-07T14:12:10.565Z,25.48
2022-08-07T14:15:07.008Z,25.52
2022-08-07T14:18:24.332Z,25.39
2022-08-07T14:21:20.823Z,25.60
2022-08-07T14:24:29.293Z,25.21
2022-08-07T14:28:10.445Z,25.25
2022-08-07T14:30:40.690Z,25.28
2022-08-07T14:33:45.033Z,25.40
2022-08-07T14:36:32.773Z,25.54
2022-08-07T14:40:15.848Z,24.57
2022-08-07T14:43:55.876Z,25.63
2022-08-07T14:45:49.622Z,25.48
2022-08-07T14:48:38.351Z,25.81
2022-08-07T14:51:28.026Z,25.35
2022-08-07T14:54:44.480Z,25.15
2022-08-07T14:57:58.812Z,25.48
2022-08-07T15:00:53.211Z,25.18
2022-08-07T15:03:52.150Z,25.58
2022-08-07T15:06:47.927Z,25.17
2022-08-07T15:09:59.833Z,25.39
2022-08-07T15:13:38.874Z,25.15
2022-08-07T15:20:30.654Z,25.36
2022-08-07T15:22:58.290Z,24.99
2022-08-07T15:25:58.453Z,25.18
2022-08-07T15:28:53.563Z,25.17
2022-08-07T15:31:58.144Z,25.28
2022-08-07T15:38:59.336Z,25.17
2022-08-07T15:42:47.838Z,24.67
2022-08-07T15:45:58.116Z,25.22
2022-08-07T15:49:15.417Z,25.08
2022-08-07T15:52:30.200Z,24.88
2022-08-07T15:56:01.738Z,25.38
2022-08-07T15:59:16.363Z,25.15
2022-08-07T16:11:41.836Z,25.45
2022-08-07T16:15:57.257Z,25.38
2022-08-07T16:18:55.789Z,25.49
2022-08-07T16:22:05.019Z,25.63
2022-08-07T16:25:02.210Z,25.54
2022-08-07T16:30:07.194Z,25.84
2022-08-07T16:32:33.063Z,25.81
2022-08-07T16:35:58.887Z,25.59
2022-08-07T16:39:06.075Z,25.36
2022-08-07T16:42:36.587Z,25.50
2022-08-07T16:47:02.802Z,25.82
2022-08-07T16:50:28.672Z,26.36
2022-08-07T16:54:02.945Z,26.00
2022-08-07T16:56:57.368Z,26.20
2022-08-07T17:00:05.955Z,25.98
2022-08-07T17:03:09.326Z,26.68
2022-08-07T17:06:31.413Z,26.20
2022-08-07T17:10:08.114Z,26.27
2022-08-07T17:13:08.416Z,26.51
2022-08-07T17:16:11.946Z,26.63
2022-08-07T17:19:18.195Z,26.38
2022-08-07T17:22:38.804Z,26.77
2022-08-07T17:26:53.896Z,26.69
2022-08-07T17:30:57.814Z,26.66
2022-08-07T17:34:10.311Z,27.22
2022-08-07T17:38:06.439Z,27.22
2022-08-07T17:40:50.515Z,27.16
2022-08-07T17:44:14.165Z,27.28
2022-08-07T17:47:57.732Z,27.29
2022-08-07T17:50:58.435Z,27.57
2022-08-07T17:54:11.628Z,27.62
2022-08-07T18:02:31.047Z,27.73
2022-08-07T18:06:37.272Z,27.68
2022-08-07T18:10:05.806Z,27.81
2022-08-07T18:13:40.670Z,27.94
2022-08-07T18:17:07.893Z,28.16
2022-08-07T18:21:06.439Z,28.28
2022-08-07T18:24:40.260Z,28.35
2022-08-07T18:28:57.831Z,28.45
2022-08-07T18:32:08.955Z,28.48
2022-08-07T18:35:51.538Z,28.62
2022-08-07T18:40:07.412Z,28.74
2022-08-07T18:43:15.206Z,28.76
2022-08-07T18:46:25.669Z,28.84
2022-08-07T18:50:31.820Z,28.78
2022-08-07T18:53:37.001Z,28.84
2022-08-07T18:57:23.350Z,29.06
2022-08-07T19:01:00.754Z,29.22
2022-08-07T19:04:28.174Z,29.28
2022-08-07T19:07:51.738Z,29.41
2022-08-07T19:11:35.244Z,29.56
2022-08-07T21:25:12.955Z,33.34
2022-08-07T22:40:46.760Z,35.32
2022-08-07T23:08:22.161Z,36.12
2022-08-07T23:11:28.948Z,36.35
